createdAt,value
2018-09-01T00:02:47.201Z,77.97
2018-09-01T00:05:50.142Z,77.56
2018-09-01T00:08:53.150Z,77.92
2018-09-01T00:11:56.299Z,78.12
2018-09-01T00:14:59.375Z,78.33
2018-09-01T00:18:02.338Z,78.14
2018-09-01T00:21:05.395Z,78.73
2018-09-01T00:24:09.228Z,79.77
2018-09-01T00:27:14.441Z,79.32
2018-09-01T00:30:17.542Z,78.80
2018-09-01T00:33:20.600Z,78.82
2018-09-01T00:36:23.589Z,78.16
2018-09-01T00:39:26.759Z,78.90
2018-09-01T00:42:29.759Z,79.19
2018-09-01T00:45:32.798Z,79.46
2018-09-01T00:48:35.863Z,79.13
2018-09-01T00:51:39.031Z,79.48
2018-09-01T00:54:42.231Z,79.80
2018-09-01T00:57:45.294Z,79.13
2018-09-01T01:00:48.430Z,79.47
2018-09-01T01:03:51.513Z,79.32
2018-09-01T01:06:54.572Z,79.93
2018-09-01T01:09:57.803Z,79.43
2018-09-01T01:13:05.301Z,79.68
2018-09-01T01:16:10.664Z,79.68
2018-09-01T01:19:14.604Z,79.68
2018-09-01T01:22:18.739Z,79.09
2018-09-01T01:25:21.774Z,79.36
2018-09-01T01:28:25.029Z,79.33
2018-09-01T01:31:28.070Z,79.47
2018-09-01T01:34:31.027Z,80.30
2018-09-01T01:37:35.289Z,79.89
2018-09-01T01:40:38.487Z,78.07
2018-09-01T01:43:41.601Z,79.25
2018-09-01T01:46:44.722Z,80.15
2018-09-01T01:49:47.833Z,80.50
2018-09-01T01:52:50.905Z,80.51
2018-09-01T01:55:54.050Z,79.97
2018-09-01T01:58:57.116Z,79.45
2018-09-01T02:02:00.330Z,77.91
2018-09-01T02:05:03.644Z,78.34
2018-09-01T02:08:06.718Z,80.54
2018-09-01T02:11:09.793Z,79.17
2018-09-01T02:14:12.834Z,79.43
2018-09-01T02:17:15.795Z,79.80
2018-09-01T02:20:18.789Z,79.92
2018-09-01T02:23:22.376Z,80.19
2018-09-01T02:26:25.445Z,80.33
2018-09-01T02:29:28.369Z,79.72
2018-09-01T02:32:31.477Z,79.70
2018-09-01T02:35:34.576Z,80.70
2018-09-01T02:38:37.685Z,80.28
2018-09-01T02:41:40.918Z,80.38
2018-09-01T02:44:43.971Z,79.97
2018-09-01T02:47:46.988Z,79.07
2018-09-01T02:50:49.947Z,79.37
2018-09-01T02:53:53.028Z,80.67
2018-09-01T02:56:55.962Z,80.55
2018-09-01T02:59:58.985Z,80.47
2018-09-01T03:03:01.915Z,80.92
2018-09-01T03:06:04.897Z,81.79
2018-09-01T03:09:08.134Z,81.34
2018-09-01T03:12:11.199Z,80.99
2018-09-01T03:15:14.311Z,80.59
2018-09-01T03:18:17.544Z,80.25
2018-09-01T03:21:20.576Z,81.34
2018-09-01T03:24:23.666Z,81.34
2018-09-01T03:27:26.799Z,81.58
2018-09-01T03:30:29.813Z,81.70
2018-09-01T03:33:32.821Z,81.26
2018-09-01T03:36:35.856Z,81.42
2018-09-01T03:39:39.158Z,81.08
2018-09-01T03:42:42.112Z,80.82
2018-09-01T03:45:45.051Z,80.49
2018-09-01T03:48:48.077Z,81.07
2018-09-01T03:51:51.043Z,79.70
2018-09-01T03:54:54.060Z,80.20
2018-09-01T03:57:57.139Z,80.86
2018-09-01T04:01:00.071Z,81.11
2018-09-01T04:04:03.058Z,81.90
2018-09-01T04:07:06.081Z,81.11
2018-09-01T04:10:13.331Z,80.92
2018-09-01T04:13:16.879Z,80.47
2018-09-01T04:16:19.919Z,80.82
2018-09-01T04:19:22.926Z,79.91
2018-09-01T04:22:25.911Z,79.79
2018-09-01T04:25:28.957Z,78.97
2018-09-01T04:28:35.882Z,79.55
2018-09-01T04:31:38.995Z,80.74
2018-09-01T04:34:42.048Z,82.46
2018-09-01T04:37:45.064Z,81.43
2018-09-01T04:40:49.043Z,81.72
2018-09-01T04:43:52.103Z,79.80
2018-09-01T04:46:55.403Z,80.12
2018-09-01T04:49:58.358Z,80.67
2018-09-01T04:53:01.303Z,81.17
2018-09-01T04:56:04.290Z,81.43
2018-09-01T04:59:07.276Z,81.54
2018-09-01T05:02:10.310Z,81.28
2018-09-01T05:05:21.256Z,81.86
2018-09-01T05:08:26.110Z,83.12
2018-09-01T05:11:30.608Z,83.41
2018-09-01T05:14:35.112Z,82.82
2018-09-01T05:17:39.334Z,81.82
2018-09-01T05:20:43.641Z,82.67
2018-09-01T05:23:48.169Z,83.14
2018-09-01T05:26:52.776Z,83.21
2018-09-01T05:29:55.907Z,81.23
2018-09-01T05:32:59.403Z,80.75
2018-09-01T05:36:03.514Z,81.88
2018-09-01T05:39:08.555Z,82.51
2018-09-01T05:42:11.475Z,82.46
2018-09-01T05:45:15.451Z,81.81
2018-09-01T05:48:21.292Z,81.76
2018-09-01T05:51:24.212Z,81.75
2018-09-01T05:54:28.312Z,81.79
2018-09-01T05:57:34.121Z,83.90
2018-09-01T06:00:42.927Z,83.10
2018-09-01T06:03:46.625Z,83.51
2018-09-01T06:06:55.505Z,83.29
2018-09-01T06:10:00.853Z,83.46
2018-09-01T06:13:06.705Z,84.55
2018-09-01T06:16:12.102Z,84.28
2018-09-01T06:19:18.278Z,84.25
2018-09-01T06:22:22.914Z,83.39
2018-09-01T06:25:30.179Z,83.78
2018-09-01T06:28:39.605Z,83.83
2018-09-01T06:32:08.367Z,85.00
2018-09-01T06:35:13.286Z,84.31
2018-09-01T06:38:16.959Z,85.34
2018-09-01T06:41:20.094Z,85.60
2018-09-01T06:44:23.188Z,85.37
2018-09-01T06:47:26.171Z,86.47
2018-09-01T06:50:29.383Z,86.37
2018-09-01T06:53:32.339Z,86.82
2018-09-01T06:56:35.443Z,87.05
2018-09-01T06:59:38.430Z,86.82
2018-09-01T07:02:41.371Z,87.48
2018-09-01T07:05:44.361Z,87.69
2018-09-01T07:08:47.441Z,88.97
2018-09-01T07:11:50.526Z,87.98
2018-09-01T07:14:53.529Z,88.02
2018-09-01T07:17:56.681Z,89.29
2018-09-01T07:20:59.633Z,88.69
2018-09-01T07:24:02.805Z,88.59
2018-09-01T07:27:05.881Z,88.49
2018-09-01T07:30:11.455Z,89.20
2018-09-01T07:33:14.508Z,89.74
2018-09-01T07:36:17.727Z,89.83
2018-09-01T07:39:20.843Z,88.67
2018-09-01T07:42:30.654Z,89.03
2018-09-01T07:45:33.671Z,88.71
2018-09-01T07:48:36.713Z,88.77
2018-09-01T07:51:39.682Z,88.19
2018-09-01T07:54:44.003Z,86.34
2018-09-01T07:57:46.978Z,86.82
2018-09-01T08:00:49.961Z,87.53
2018-09-01T08:03:53.662Z,86.13
2018-09-01T08:06:56.809Z,86.71
2018-09-01T08:09:59.701Z,87.30
2018-09-01T08:13:02.675Z,85.07
2018-09-01T08:16:05.655Z,85.27
2018-09-01T08:19:08.581Z,84.48
2018-09-01T08:22:11.525Z,84.70
2018-09-01T08:25:14.571Z,83.53
2018-09-01T08:28:17.604Z,81.67
2018-09-01T08:31:20.512Z,77.65
2018-09-01T08:34:23.469Z,78.48
2018-09-01T08:37:26.575Z,77.88
2018-09-01T08:40:29.852Z,77.27
2018-09-01T08:43:32.896Z,80.24
2018-09-01T08:46:35.840Z,79.89
2018-09-01T08:49:39.467Z,78.40
2018-09-01T08:52:43.590Z,78.81
2018-09-01T08:55:46.573Z,78.22
2018-09-01T08:58:49.749Z,78.27
2018-09-01T09:01:52.835Z,77.32
2018-09-01T09:04:55.787Z,76.92
2018-09-01T09:07:58.791Z,76.20
2018-09-01T09:11:01.848Z,76.71
2018-09-01T09:14:05.244Z,76.30
2018-09-01T09:17:08.362Z,72.94
2018-09-01T09:20:11.416Z,70.25
2018-09-01T09:23:14.550Z,68.20
2018-09-01T09:26:17.553Z,63.39
2018-09-01T09:29:20.652Z,64.08
2018-09-01T09:32:23.889Z,62.29
2018-09-01T09:35:26.950Z,62.53
2018-09-01T09:38:30.016Z,60.19
2018-09-01T09:41:34.233Z,58.87
2018-09-01T09:44:37.364Z,59.07
2018-09-01T09:47:40.710Z,58.51
2018-09-01T09:50:43.770Z,57.48
2018-09-01T09:53:46.965Z,56.71
2018-09-01T09:56:49.910Z,58.11
2018-09-01T09:59:52.849Z,56.33
2018-09-01T10:02:55.852Z,56.22
2018-09-01T10:05:58.866Z,55.43
2018-09-01T10:09:01.911Z,55.26
2018-09-01T10:12:04.876Z,55.81
2018-09-01T10:15:08.110Z,54.54
2018-09-01T10:18:11.076Z,56.40
2018-09-01T10:21:14.222Z,55.42
2018-09-01T10:24:17.237Z,57.09
2018-09-01T10:27:20.211Z,57.69
2018-09-01T10:30:23.187Z,54.74
2018-09-01T10:33:26.201Z,59.64
2018-09-01T10:36:29.275Z,59.65
2018-09-01T10:39:32.281Z,59.13
2018-09-01T10:42:35.346Z,57.42
2018-09-01T10:45:38.417Z,58.93
2018-09-01T10:48:42.489Z,58.08
2018-09-01T10:51:45.711Z,59.16
2018-09-01T10:54:48.715Z,60.43
2018-09-01T10:57:51.735Z,59.12
2018-09-01T11:00:54.712Z,59.06
2018-09-01T11:03:57.735Z,53.68
2018-09-01T11:07:00.672Z,57.33
2018-09-01T11:10:04.025Z,58.57
2018-09-01T11:13:07.036Z,59.88
2018-09-01T11:16:10.167Z,59.43
2018-09-01T11:19:13.365Z,61.45
2018-09-01T11:22:16.719Z,58.42
2018-09-01T11:25:19.953Z,58.30
2018-09-01T11:28:23.072Z,59.23
2018-09-01T11:31:26.175Z,59.21
2018-09-01T11:34:29.130Z,59.91
2018-09-01T11:37:33.265Z,58.72
2018-09-01T11:40:36.422Z,55.83
2018-09-01T11:43:39.520Z,53.33
2018-09-01T11:46:42.637Z,53.39
2018-09-01T11:49:45.676Z,51.75
2018-09-01T11:52:48.777Z,51.85
2018-09-01T11:55:51.784Z,49.92
2018-09-01T11:58:55.062Z,50.49
2018-09-01T12:01:58.182Z,52.31
2018-09-01T12:05:01.297Z,55.57
2018-09-01T12:08:04.815Z,53.76
2018-09-01T12:11:08.151Z,51.18
2018-09-01T12:14:11.451Z,50.41
2018-09-01T12:17:14.765Z,50.87
2018-09-01T12:20:17.947Z,50.59
2018-09-01T12:23:21.199Z,48.05
2018-09-01T12:26:24.475Z,50.32
2018-09-01T12:29:27.598Z,48.08
2018-09-01T12:32:30.625Z,49.65
2018-09-01T12:35:34.875Z,50.70
2018-09-01T12:38:38.223Z,52.31
2018-09-01T12:41:41.348Z,52.97
2018-09-01T12:44:44.418Z,52.71
2018-09-01T12:47:48.218Z,51.12
2018-09-01T12:50:51.581Z,48.23
2018-09-01T12:53:54.594Z,47.70
2018-09-01T12:56:57.826Z,48.46
2018-09-01T13:00:00.807Z,47.74
2018-09-01T13:03:10.513Z,48.46
2018-09-01T13:06:13.513Z,46.49
2018-09-01T13:09:16.598Z,46.24
2018-09-01T13:12:19.676Z,47.10
2018-09-01T13:15:22.790Z,45.81
2018-09-01T13:18:25.790Z,47.64
2018-09-01T13:21:28.935Z,46.48
2018-09-01T13:24:31.878Z,45.96
2018-09-01T13:27:34.821Z,46.51
2018-09-01T13:30:37.763Z,49.57
2018-09-01T13:33:40.676Z,50.09
2018-09-01T13:36:43.667Z,50.09
2018-09-01T13:39:46.731Z,52.50
2018-09-01T13:42:49.841Z,52.44
2018-09-01T13:45:53.052Z,51.59
2018-09-01T13:48:56.185Z,48.32
2018-09-01T13:51:59.801Z,48.22
2018-09-01T13:55:03.847Z,46.03
2018-09-01T13:58:06.906Z,44.88
2018-09-01T14:01:10.028Z,41.92
2018-09-01T14:04:13.042Z,42.52
2018-09-01T14:07:16.133Z,43.02
2018-09-01T14:10:19.230Z,45.61
2018-09-01T14:13:22.305Z,42.03
2018-09-01T14:16:25.338Z,44.50
2018-09-01T14:19:28.360Z,43.48
2018-09-01T14:22:32.467Z,44.40
2018-09-01T14:25:35.604Z,43.62
2018-09-01T14:28:38.577Z,47.49
2018-09-01T14:31:41.566Z,47.55
2018-09-01T14:34:44.520Z,49.60
2018-09-01T14:37:47.621Z,51.91
2018-09-01T14:40:50.687Z,51.39
2018-09-01T14:43:53.901Z,50.52
2018-09-01T14:46:56.970Z,51.07
2018-09-01T14:49:59.911Z,49.15
2018-09-01T14:53:03.302Z,46.82
2018-09-01T14:56:06.532Z,44.31
2018-09-01T14:59:09.821Z,43.31
2018-09-01T15:02:12.981Z,42.48
2018-09-01T15:05:16.187Z,42.71
2018-09-01T15:08:19.242Z,43.87
2018-09-01T15:11:22.299Z,43.26
2018-09-01T15:14:25.286Z,44.52
2018-09-01T15:17:28.312Z,44.84
2018-09-01T15:20:31.346Z,46.25
2018-09-01T15:23:34.306Z,48.34
2018-09-01T15:26:37.204Z,48.39
2018-09-01T15:29:40.143Z,49.30
2018-09-01T15:32:43.122Z,52.63
2018-09-01T15:35:46.203Z,52.76
2018-09-01T15:38:49.372Z,53.65
2018-09-01T15:41:52.425Z,51.79
2018-09-01T15:45:02.188Z,52.45
2018-09-01T15:48:05.198Z,51.46
2018-09-01T15:51:08.184Z,49.32
2018-09-01T15:54:11.185Z,50.27
2018-09-01T15:57:14.112Z,48.78
2018-09-01T16:00:17.297Z,49.18
2018-09-01T16:03:20.515Z,50.96
2018-09-01T16:06:23.675Z,51.09
2018-09-01T16:09:26.761Z,55.93
2018-09-01T16:12:29.896Z,50.47
2018-09-01T16:15:32.848Z,51.91
2018-09-01T16:18:35.806Z,52.33
2018-09-01T16:21:38.778Z,52.47
2018-09-01T16:24:41.835Z,53.67
2018-09-01T16:27:44.673Z,54.79
2018-09-01T16:30:47.696Z,53.73
2018-09-01T16:33:50.850Z,53.69
2018-09-01T16:36:53.939Z,52.44
2018-09-01T16:39:57.026Z,55.63
2018-09-01T16:43:00.100Z,54.49
2018-09-01T16:46:02.999Z,54.42
2018-09-01T16:49:05.909Z,54.08
2018-09-01T16:52:08.921Z,55.73
2018-09-01T16:55:11.814Z,58.68
2018-09-01T16:58:14.741Z,57.78
2018-09-01T17:01:17.761Z,58.37
2018-09-01T17:04:20.929Z,56.00
2018-09-01T17:07:24.278Z,54.96
2018-09-01T17:10:27.392Z,56.85
2018-09-01T17:13:30.336Z,55.58
2018-09-01T17:16:33.326Z,56.44
2018-09-01T17:19:36.281Z,56.37
2018-09-01T17:22:39.200Z,56.65
2018-09-01T17:25:42.190Z,58.31
2018-09-01T17:28:45.156Z,57.31
2018-09-01T17:31:48.225Z,55.63
2018-09-01T17:34:51.469Z,58.86
2018-09-01T17:37:54.493Z,61.17
2018-09-01T17:40:57.746Z,63.94
2018-09-01T17:44:00.626Z,66.13
2018-09-01T17:47:03.532Z,66.95
2018-09-01T17:50:06.583Z,67.15
2018-09-01T17:53:09.503Z,67.92
2018-09-01T17:56:12.412Z,68.95
2018-09-01T17:59:15.497Z,69.19
2018-09-01T18:02:18.883Z,68.79
2018-09-01T18:05:21.819Z,69.16
2018-09-01T18:08:24.836Z,69.57
2018-09-01T18:11:28.070Z,68.97
2018-09-01T18:14:31.109Z,68.95
2018-09-01T18:17:34.079Z,68.68
2018-09-01T18:23:46.752Z,69.37
2018-09-01T18:26:49.757Z,69.10
2018-09-01T18:29:52.777Z,69.05
2018-09-01T18:32:55.830Z,69.25
2018-09-01T18:35:59.098Z,68.66
2018-09-01T18:39:02.062Z,69.08
2018-09-01T18:42:05.070Z,69.16
2018-09-01T18:45:08.440Z,68.72
2018-09-01T18:48:11.397Z,69.54
2018-09-01T18:51:14.338Z,69.68
2018-09-01T18:54:17.559Z,69.49
2018-09-01T18:57:20.474Z,69.47
2018-09-01T19:00:23.472Z,70.01
2018-09-01T19:03:26.725Z,69.74
2018-09-01T19:06:29.703Z,70.42
2018-09-01T19:09:32.646Z,70.30
2018-09-01T19:12:35.633Z,69.67
2018-09-01T19:15:38.610Z,69.92
2018-09-01T19:18:41.540Z,69.96
2018-09-01T19:21:44.513Z,70.30
2018-09-01T19:24:47.808Z,69.68
2018-09-01T19:27:50.851Z,70.75
2018-09-01T19:30:53.825Z,71.12
2018-09-01T19:33:56.943Z,71.23
2018-09-01T19:36:59.958Z,71.32
2018-09-01T19:40:02.944Z,71.60
2018-09-01T19:43:06.036Z,71.25
2018-09-01T19:46:09.072Z,71.47
2018-09-01T19:49:11.977Z,71.07
2018-09-01T19:52:15.016Z,71.89
2018-09-01T19:55:17.997Z,72.01
2018-09-01T19:58:21.155Z,71.23
2018-09-01T20:01:24.318Z,72.07
2018-09-01T20:04:27.347Z,71.54
2018-09-01T20:07:30.271Z,72.49
2018-09-01T20:10:33.185Z,72.52
2018-09-01T20:13:36.118Z,71.99
2018-09-01T20:16:39.063Z,71.91
2018-09-01T20:19:42.001Z,71.75
2018-09-01T20:22:44.889Z,72.49
2018-09-01T20:25:47.972Z,73.73
2018-09-01T20:28:51.018Z,73.81
2018-09-01T20:31:54.162Z,73.53
2018-09-01T20:35:02.677Z,74.02
2018-09-01T20:38:05.990Z,73.24
2018-09-01T20:41:08.801Z,73.11
2018-09-01T20:44:11.761Z,73.93
2018-09-01T20:47:14.687Z,74.76
2018-09-01T20:50:17.825Z,73.50
2018-09-01T20:53:20.993Z,74.26
2018-09-01T20:56:24.094Z,74.45
2018-09-01T20:59:27.245Z,74.83
2018-09-01T21:02:30.217Z,74.41
2018-09-01T21:05:33.145Z,74.45
2018-09-01T21:08:36.110Z,74.00
2018-09-01T21:11:39.703Z,74.50
2018-09-01T21:14:42.636Z,74.30
2018-09-01T21:17:45.646Z,74.77
2018-09-01T21:20:48.676Z,75.35
2018-09-01T21:23:51.668Z,74.46
2018-09-01T21:26:54.715Z,75.37
2018-09-01T21:29:57.901Z,74.94
2018-09-01T21:33:00.831Z,75.24
2018-09-01T21:36:03.827Z,75.14
2018-09-01T21:39:07.380Z,75.87
2018-09-01T21:42:10.336Z,75.07
2018-09-01T21:45:13.220Z,75.38
2018-09-01T21:48:16.246Z,75.14
2018-09-01T21:51:19.257Z,74.46
2018-09-01T21:54:22.275Z,75.66
2018-09-01T21:57:25.284Z,75.38
2018-09-01T22:00:28.394Z,74.93
2018-09-01T22:03:43.811Z,75.82
2018-09-01T22:06:47.443Z,75.36
2018-09-01T22:09:51.818Z,76.05
2018-09-01T22:12:54.787Z,75.27
2018-09-01T22:15:58.004Z,76.80
2018-09-01T22:19:00.900Z,76.13
2018-09-01T22:22:03.850Z,75.86
2018-09-01T22:25:06.816Z,76.66
2018-09-01T22:28:09.699Z,77.31
2018-09-01T22:31:12.606Z,77.30
2018-09-01T22:34:15.951Z,77.34
2018-09-01T22:37:18.950Z,76.88
2018-09-01T22:40:22.099Z,77.94
2018-09-01T22:43:25.139Z,76.85
2018-09-01T22:46:28.317Z,77.48
2018-09-01T22:49:31.297Z,78.11
2018-09-01T22:52:34.222Z,78.52
2018-09-01T22:55:37.152Z,78.80
2018-09-01T22:58:40.103Z,78.42
2018-09-01T23:01:43.046Z,78.81
2018-09-01T23:04:46.883Z,78.69
2018-09-01T23:07:50.015Z,79.66
2018-09-01T23:10:53.181Z,79.40
2018-09-01T23:13:56.441Z,78.51
2018-09-01T23:16:59.419Z,79.09
2018-09-01T23:20:02.394Z,78.65
2018-09-01T23:23:05.733Z,79.88
2018-09-01T23:26:08.610Z,80.37
2018-09-01T23:29:11.497Z,80.42
2018-09-01T23:32:14.446Z,80.67
2018-09-01T23:35:17.475Z,80.96
2018-09-01T23:38:20.479Z,81.37
2018-09-01T23:41:23.411Z,81.51
2018-09-01T23:44:26.450Z,82.48
2018-09-01T23:47:30.175Z,82.25
2018-09-01T23:50:33.143Z,82.43
2018-09-01T23:53:36.124Z,82.04
2018-09-01T23:56:39.045Z,82.13
2018-09-01T23:59:42.012Z,82.61
